sensor_id;sensor_type;location;lat;lon;timestamp;P1;durP1;ratioP1;P2;durP2;ratioP2
37115;SDS011;23025;41.996;23.098;2023-02-22T00:02:17;2.63;;;2.53;;
37115;SDS011;23025;41.996;23.098;2023-02-22T00:04:53;1.83;;;1.73;;
37115;SDS011;23025;41.996;23.098;2023-02-22T00:07:19;3.13;;;2.90;;
37115;SDS011;23025;41.996;23.098;2023-02-22T00:09:49;3.63;;;3.42;;
37115;SDS011;23025;41.996;23.098;2023-02-22T00:12:15;0.95;;;0.93;;
37115;SDS011;23025;41.996;23.098;2023-02-22T00:14:42;1.23;;;1.20;;
37115;SDS011;23025;41.996;23.098;2023-02-22T00:17:08;1.40;;;1.30;;
37115;SDS011;23025;41.996;23.098;2023-02-22T00:19:37;2.30;;;2.05;;
37115;SDS011;23025;41.996;23.098;2023-02-22T00:22:04;1.85;;;1.75;;
37115;SDS011;23025;41.996;23.098;2023-02-22T00:24:31;2.25;;;2.15;;
37115;SDS011;23025;41.996;23.098;2023-02-22T00:27:01;2.83;;;2.42;;
37115;SDS011;23025;41.996;23.098;2023-02-22T00:29:28;1.70;;;1.60;;
37115;SDS011;23025;41.996;23.098;2023-02-22T00:31:55;2.22;;;2.10;;
37115;SDS011;23025;41.996;23.098;2023-02-22T00:34:21;1.40;;;1.30;;
37115;SDS011;23025;41.996;23.098;2023-02-22T00:36:48;2.88;;;2.70;;
37115;SDS011;23025;41.996;23.098;2023-02-22T00:39:15;1.48;;;1.45;;
37115;SDS011;23025;41.996;23.098;2023-02-22T00:41:42;1.45;;;1.35;;
37115;SDS011;23025;41.996;23.098;2023-02-22T00:44:10;1.88;;;1.70;;
37115;SDS011;23025;41.996;23.098;2023-02-22T00:46:36;1.42;;;1.33;;
37115;SDS011;23025;41.996;23.098;2023-02-22T00:49:03;3.33;;;3.20;;
37115;SDS011;23025;41.996;23.098;2023-02-22T00:51:30;3.47;;;1.75;;
37115;SDS011;23025;41.996;23.098;2023-02-22T00:53:57;1.05;;;1.05;;
37115;SDS011;23025;41.996;23.098;2023-02-22T00:56:24;1.95;;;1.83;;
37115;SDS011;23025;41.996;23.098;2023-02-22T00:58:50;3.15;;;2.95;;
37115;SDS011;23025;41.996;23.098;2023-02-22T01:01:18;2.40;;;2.30;;
37115;SDS011;23025;41.996;23.098;2023-02-22T01:03:46;3.17;;;2.95;;
37115;SDS011;23025;41.996;23.098;2023-02-22T01:06:12;1.60;;;1.50;;
37115;SDS011;23025;41.996;23.098;2023-02-22T01:08:42;2.22;;;2.13;;
37115;SDS011;23025;41.996;23.098;2023-02-22T01:11:09;2.60;;;2.50;;
37115;SDS011;23025;41.996;23.098;2023-02-22T01:13:35;1.83;;;1.73;;
37115;SDS011;23025;41.996;23.098;2023-02-22T01:16:02;2.25;;;2.15;;
37115;SDS011;23025;41.996;23.098;2023-02-22T01:18:33;1.88;;;1.77;;
37115;SDS011;23025;41.996;23.098;2023-02-22T01:21:00;1.52;;;1.48;;
37115;SDS011;23025;41.996;23.098;2023-02-22T01:23:27;1.02;;;0.98;;
37115;SDS011;23025;41.996;23.098;2023-02-22T01:25:53;1.92;;;1.83;;
37115;SDS011;23025;41.996;23.098;2023-02-22T01:28:20;2.63;;;1.25;;
37115;SDS011;23025;41.996;23.098;2023-02-22T01:30:47;2.55;;;2.35;;
37115;SDS011;23025;41.996;23.098;2023-02-22T01:33:14;2.65;;;2.55;;
37115;SDS011;23025;41.996;23.098;2023-02-22T01:35:42;2.67;;;1.83;;
37115;SDS011;23025;41.996;23.098;2023-02-22T01:38:10;1.77;;;1.67;;
37115;SDS011;23025;41.996;23.098;2023-02-22T01:40:38;3.95;;;3.65;;
37115;SDS011;23025;41.996;23.098;2023-02-22T01:43:13;2.28;;;2.17;;
37115;SDS011;23025;41.996;23.098;2023-02-22T01:45:45;2.55;;;2.40;;
37115;SDS011;23025;41.996;23.098;2023-02-22T01:48:14;1.98;;;1.65;;
37115;SDS011;23025;41.996;23.098;2023-02-22T01:50:44;1.02;;;1.02;;
37115;SDS011;23025;41.996;23.098;2023-02-22T01:53:12;1.40;;;1.30;;
37115;SDS011;23025;41.996;23.098;2023-02-22T01:55:40;1.60;;;1.50;;
37115;SDS011;23025;41.996;23.098;2023-02-22T01:58:07;2.35;;;2.25;;
37115;SDS011;23025;41.996;23.098;2023-02-22T02:00:34;3.00;;;2.80;;
37115;SDS011;23025;41.996;23.098;2023-02-22T02:03:03;2.10;;;2.00;;
37115;SDS011;23025;41.996;23.098;2023-02-22T02:05:30;2.03;;;1.92;;
37115;SDS011;23025;41.996;23.098;2023-02-22T02:08:00;1.92;;;1.83;;
37115;SDS011;23025;41.996;23.098;2023-02-22T02:10:30;1.50;;;1.45;;
37115;SDS011;23025;41.996;23.098;2023-02-22T02:12:59;3.92;;;3.72;;
37115;SDS011;23025;41.996;23.098;2023-02-22T02:15:28;2.17;;;1.55;;
37115;SDS011;23025;41.996;23.098;2023-02-22T02:17:56;1.80;;;1.70;;
37115;SDS011;23025;41.996;23.098;2023-02-22T02:20:26;1.75;;;1.65;;
37115;SDS011;23025;41.996;23.098;2023-02-22T02:22:54;1.33;;;1.30;;
37115;SDS011;23025;41.996;23.098;2023-02-22T02:28:16;2.83;;;2.67;;
37115;SDS011;23025;41.996;23.098;2023-02-22T02:30:55;3.08;;;2.88;;
37115;SDS011;23025;41.996;23.098;2023-02-22T02:33:28;2.03;;;1.92;;
37115;SDS011;23025;41.996;23.098;2023-02-22T02:35:59;2.45;;;2.35;;
37115;SDS011;23025;41.996;23.098;2023-02-22T02:38:29;1.38;;;1.25;;
37115;SDS011;23025;41.996;23.098;2023-02-22T02:40:59;2.83;;;2.63;;
37115;SDS011;23025;41.996;23.098;2023-02-22T02:43:30;2.70;;;2.38;;
37115;SDS011;23025;41.996;23.098;2023-02-22T02:45:57;2.97;;;2.75;;
37115;SDS011;23025;41.996;23.098;2023-02-22T02:48:27;2.05;;;1.95;;
37115;SDS011;23025;41.996;23.098;2023-02-22T02:50:56;2.38;;;2.28;;
37115;SDS011;23025;41.996;23.098;2023-02-22T02:53:24;1.60;;;1.50;;
37115;SDS011;23025;41.996;23.098;2023-02-22T02:55:52;1.88;;;1.77;;
37115;SDS011;23025;41.996;23.098;2023-02-22T02:58:20;5.10;;;4.35;;
37115;SDS011;23025;41.996;23.098;2023-02-22T03:00:47;0.98;;;0.98;;
37115;SDS011;23025;41.996;23.098;2023-02-22T03:03:36;2.80;;;2.70;;
37115;SDS011;23025;41.996;23.098;2023-02-22T03:06:11;1.80;;;1.70;;
37115;SDS011;23025;41.996;23.098;2023-02-22T03:08:42;1.90;;;1.80;;
37115;SDS011;23025;41.996;23.098;2023-02-22T03:11:11;1.98;;;1.88;;
37115;SDS011;23025;41.996;23.098;2023-02-22T03:13:41;1.92;;;1.83;;
37115;SDS011;23025;41.996;23.098;2023-02-22T03:16:12;2.65;;;2.47;;
37115;SDS011;23025;41.996;23.098;2023-02-22T03:18:42;1.90;;;1.73;;
37115;SDS011;23025;41.996;23.098;2023-02-22T03:21:13;1.52;;;1.33;;
37115;SDS011;23025;41.996;23.098;2023-02-22T03:23:43;2.20;;;2.10;;
37115;SDS011;23025;41.996;23.098;2023-02-22T03:26:12;1.40;;;1.40;;
37115;SDS011;23025;41.996;23.098;2023-02-22T03:28:40;0.98;;;0.98;;
37115;SDS011;23025;41.996;23.098;2023-02-22T03:31:09;2.13;;;2.03;;
37115;SDS011;23025;41.996;23.098;2023-02-22T03:33:39;2.40;;;2.30;;
37115;SDS011;23025;41.996;23.098;2023-02-22T03:36:08;1.98;;;1.88;;
37115;SDS011;23025;41.996;23.098;2023-02-22T03:38:38;1.48;;;1.38;;
37115;SDS011;23025;41.996;23.098;2023-02-22T03:41:05;2.08;;;1.98;;
37115;SDS011;23025;41.996;23.098;2023-02-22T03:43:35;2.33;;;2.22;;
37115;SDS011;23025;41.996;23.098;2023-02-22T03:46:03;4.30;;;4.10;;
37115;SDS011;23025;41.996;23.098;2023-02-22T03:48:34;1.27;;;1.23;;
37115;SDS011;23025;41.996;23.098;2023-02-22T03:51:01;1.80;;;1.67;;
37115;SDS011;23025;41.996;23.098;2023-02-22T03:53:29;1.55;;;1.50;;
37115;SDS011;23025;41.996;23.098;2023-02-22T03:55:57;1.13;;;1.10;;
37115;SDS011;23025;41.996;23.098;2023-02-22T03:58:24;2.10;;;1.98;;
37115;SDS011;23025;41.996;23.098;2023-02-22T04:00:52;2.85;;;2.65;;
37115;SDS011;23025;41.996;23.098;2023-02-22T04:03:18;1.80;;;1.70;;
37115;SDS011;23025;41.996;23.098;2023-02-22T04:05:45;1.60;;;1.50;;
37115;SDS011;23025;41.996;23.098;2023-02-22T04:08:12;2.00;;;1.90;;
37115;SDS011;23025;41.996;23.098;2023-02-22T04:10:38;2.10;;;1.90;;
37115;SDS011;23025;41.996;23.098;2023-02-22T04:13:06;1.42;;;1.35;;
37115;SDS011;23025;41.996;23.098;2023-02-22T04:15:33;1.83;;;1.73;;
37115;SDS011;23025;41.996;23.098;2023-02-22T04:17:59;1.48;;;1.38;;
37115;SDS011;23025;41.996;23.098;2023-02-22T04:20:26;2.80;;;2.47;;
37115;SDS011;23025;41.996;23.098;2023-02-22T04:22:53;1.55;;;1.50;;
37115;SDS011;23025;41.996;23.098;2023-02-22T04:25:20;3.67;;;3.45;;
37115;SDS011;23025;41.996;23.098;2023-02-22T04:27:47;1.15;;;1.15;;
37115;SDS011;23025;41.996;23.098;2023-02-22T04:30:16;3.45;;;1.98;;
37115;SDS011;23025;41.996;23.098;2023-02-22T04:32:42;1.15;;;1.13;;
37115;SDS011;23025;41.996;23.098;2023-02-22T04:35:09;2.70;;;2.38;;
37115;SDS011;23025;41.996;23.098;2023-02-22T04:37:36;1.98;;;1.55;;
37115;SDS011;23025;41.996;23.098;2023-02-22T04:40:03;4.13;;;2.60;;
37115;SDS011;23025;41.996;23.098;2023-02-22T04:42:31;2.20;;;2.10;;
37115;SDS011;23025;41.996;23.098;2023-02-22T04:44:58;2.40;;;2.30;;
37115;SDS011;23025;41.996;23.098;2023-02-22T04:47:26;1.15;;;0.68;;
37115;SDS011;23025;41.996;23.098;2023-02-22T04:49:52;0.98;;;0.98;;
37115;SDS011;23025;41.996;23.098;2023-02-22T04:52:19;2.28;;;2.17;;
37115;SDS011;23025;41.996;23.098;2023-02-22T04:54:46;0.95;;;0.95;;
37115;SDS011;23025;41.996;23.098;2023-02-22T04:57:12;3.55;;;3.35;;
37115;SDS011;23025;41.996;23.098;2023-02-22T04:59:39;1.85;;;1.75;;
37115;SDS011;23025;41.996;23.098;2023-02-22T05:02:05;2.58;;;2.38;;
37115;SDS011;23025;41.996;23.098;2023-02-22T05:04:34;2.47;;;2.35;;
37115;SDS011;23025;41.996;23.098;2023-02-22T05:07:02;5.53;;;1.40;;
37115;SDS011;23025;41.996;23.098;2023-02-22T05:09:29;4.57;;;4.38;;
37115;SDS011;23025;41.996;23.098;2023-02-22T05:11:55;3.03;;;2.80;;
37115;SDS011;23025;41.996;23.098;2023-02-22T05:14:22;1.08;;;1.08;;
37115;SDS011;23025;41.996;23.098;2023-02-22T05:16:50;0.77;;;0.77;;
37115;SDS011;23025;41.996;23.098;2023-02-22T05:19:17;1.95;;;1.52;;
37115;SDS011;23025;41.996;23.098;2023-02-22T05:21:45;1.08;;;1.08;;
37115;SDS011;23025;41.996;23.098;2023-02-22T05:24:11;1.42;;;1.38;;
37115;SDS011;23025;41.996;23.098;2023-02-22T05:26:38;1.58;;;1.48;;
37115;SDS011;23025;41.996;23.098;2023-02-22T05:29:05;3.13;;;3.00;;
37115;SDS011;23025;41.996;23.098;2023-02-22T05:31:31;3.42;;;3.22;;
37115;SDS011;23025;41.996;23.098;2023-02-22T05:33:58;1.25;;;1.17;;
37115;SDS011;23025;41.996;23.098;2023-02-22T05:36:24;2.78;;;2.60;;
37115;SDS011;23025;41.996;23.098;2023-02-22T05:38:53;1.17;;;1.15;;
37115;SDS011;23025;41.996;23.098;2023-02-22T05:41:20;3.53;;;2.00;;
37115;SDS011;23025;41.996;23.098;2023-02-22T05:43:46;5.40;;;3.83;;
37115;SDS011;23025;41.996;23.098;2023-02-22T05:46:13;1.50;;;1.33;;
37115;SDS011;23025;41.996;23.098;2023-02-22T05:48:40;3.35;;;3.17;;
37115;SDS011;23025;41.996;23.098;2023-02-22T05:51:06;2.33;;;2.22;;
37115;SDS011;23025;41.996;23.098;2023-02-22T05:53:34;2.53;;;1.70;;
37115;SDS011;23025;41.996;23.098;2023-02-22T05:56:02;2.83;;;2.67;;
37115;SDS011;23025;41.996;23.098;2023-02-22T05:58:30;1.00;;;0.95;;
37115;SDS011;23025;41.996;23.098;2023-02-22T06:00:56;2.03;;;1.92;;
37115;SDS011;23025;41.996;23.098;2023-02-22T06:03:23;2.45;;;2.25;;
37115;SDS011;23025;41.996;23.098;2023-02-22T06:05:50;2.05;;;1.95;;
37115;SDS011;23025;41.996;23.098;2023-02-22T06:08:16;2.22;;;2.08;;
37115;SDS011;23025;41.996;23.098;2023-02-22T06:10:43;1.83;;;1.73;;
37115;SDS011;23025;41.996;23.098;2023-02-22T06:13:11;1.90;;;1.80;;
37115;SDS011;23025;41.996;23.098;2023-02-22T06:15:37;1.17;;;1.17;;
37115;SDS011;23025;41.996;23.098;2023-02-22T06:18:04;1.77;;;1.67;;
37115;SDS011;23025;41.996;23.098;2023-02-22T06:20:30;3.28;;;2.38;;
37115;SDS011;23025;41.996;23.098;2023-02-22T06:22:57;2.65;;;2.55;;
37115;SDS011;23025;41.996;23.098;2023-02-22T06:25:24;4.03;;;1.52;;
37115;SDS011;23025;41.996;23.098;2023-02-22T06:27:51;3.85;;;3.63;;
37115;SDS011;23025;41.996;23.098;2023-02-22T06:32:47;2.15;;;2.05;;
37115;SDS011;23025;41.996;23.098;2023-02-22T06:35:14;11.18;;;3.10;;
37115;SDS011;23025;41.996;23.098;2023-02-22T06:37:40;3.53;;;3.30;;
37115;SDS011;23025;41.996;23.098;2023-02-22T06:40:07;4.05;;;3.83;;
37115;SDS011;23025;41.996;23.098;2023-02-22T06:42:35;2.45;;;2.33;;
37115;SDS011;23025;41.996;23.098;2023-02-22T06:45:02;5.57;;;4.35;;
37115;SDS011;23025;41.996;23.098;2023-02-22T06:47:28;3.63;;;3.42;;
37115;SDS011;23025;41.996;23.098;2023-02-22T06:49:57;2.95;;;2.75;;
37115;SDS011;23025;41.996;23.098;2023-02-22T06:52:23;3.30;;;3.10;;
37115;SDS011;23025;41.996;23.098;2023-02-22T06:54:51;4.95;;;3.97;;
37115;SDS011;23025;41.996;23.098;2023-02-22T06:57:17;4.38;;;4.05;;
37115;SDS011;23025;41.996;23.098;2023-02-22T06:59:44;4.10;;;3.70;;
37115;SDS011;23025;41.996;23.098;2023-02-22T07:02:10;4.22;;;4.03;;
37115;SDS011;23025;41.996;23.098;2023-02-22T07:04:37;4.75;;;4.45;;
37115;SDS011;23025;41.996;23.098;2023-02-22T07:07:05;4.05;;;2.72;;
37115;SDS011;23025;41.996;23.098;2023-02-22T07:09:31;5.85;;;3.65;;
37115;SDS011;23025;41.996;23.098;2023-02-22T07:11:58;5.50;;;5.03;;
37115;SDS011;23025;41.996;23.098;2023-02-22T07:14:24;5.43;;;5.03;;
37115;SDS011;23025;41.996;23.098;2023-02-22T07:16:51;4.53;;;4.30;;
37115;SDS011;23025;41.996;23.098;2023-02-22T07:19:17;4.20;;;3.75;;
37115;SDS011;23025;41.996;23.098;2023-02-22T07:21:44;3.40;;;3.17;;
37115;SDS011;23025;41.996;23.098;2023-02-22T07:24:13;4.85;;;4.13;;
37115;SDS011;23025;41.996;23.098;2023-02-22T07:26:40;4.22;;;4.03;;
37115;SDS011;23025;41.996;23.098;2023-02-22T07:29:07;5.40;;;4.57;;
37115;SDS011;23025;41.996;23.098;2023-02-22T07:31:35;4.57;;;4.03;;
37115;SDS011;23025;41.996;23.098;2023-02-22T07:34:02;5.10;;;4.70;;
37115;SDS011;23025;41.996;23.098;2023-02-22T07:36:28;6.47;;;5.80;;
37115;SDS011;23025;41.996;23.098;2023-02-22T07:38:55;4.93;;;4.53;;
37115;SDS011;23025;41.996;23.098;2023-02-22T07:41:23;3.47;;;3.17;;
37115;SDS011;23025;41.996;23.098;2023-02-22T07:43:50;5.47;;;4.97;;
37115;SDS011;23025;41.996;23.098;2023-02-22T07:46:16;5.95;;;5.55;;
37115;SDS011;23025;41.996;23.098;2023-02-22T07:48:43;4.05;;;3.80;;
37115;SDS011;23025;41.996;23.098;2023-02-22T07:51:09;6.00;;;5.47;;
37115;SDS011;23025;41.996;23.098;2023-02-22T07:53:36;3.72;;;3.40;;
37115;SDS011;23025;41.996;23.098;2023-02-22T07:56:03;4.22;;;3.85;;
37115;SDS011;23025;41.996;23.098;2023-02-22T07:58:34;6.10;;;5.60;;
37115;SDS011;23025;41.996;23.098;2023-02-22T08:01:00;6.13;;;5.63;;
37115;SDS011;23025;41.996;23.098;2023-02-22T08:03:29;3.88;;;3.58;;
37115;SDS011;23025;41.996;23.098;2023-02-22T08:05:56;4.60;;;4.30;;
37115;SDS011;23025;41.996;23.098;2023-02-22T08:08:24;5.95;;;5.45;;
37115;SDS011;23025;41.996;23.098;2023-02-22T08:10:51;6.28;;;5.82;;
37115;SDS011;23025;41.996;23.098;2023-02-22T08:13:18;4.47;;;4.10;;
37115;SDS011;23025;41.996;23.098;2023-02-22T08:15:48;5.95;;;5.55;;
37115;SDS011;23025;41.996;23.098;2023-02-22T08:18:16;4.32;;;4.03;;
37115;SDS011;23025;41.996;23.098;2023-02-22T08:20:43;3.63;;;3.50;;
37115;SDS011;23025;41.996;23.098;2023-02-22T08:23:11;5.18;;;4.78;;
37115;SDS011;23025;41.996;23.098;2023-02-22T08:25:38;4.82;;;4.43;;
37115;SDS011;23025;41.996;23.098;2023-02-22T08:28:05;8.02;;;7.28;;
37115;SDS011;23025;41.996;23.098;2023-02-22T08:30:32;3.17;;;2.97;;
37115;SDS011;23025;41.996;23.098;2023-02-22T08:33:01;9.40;;;5.32;;
37115;SDS011;23025;41.996;23.098;2023-02-22T08:35:28;5.22;;;4.82;;
37115;SDS011;23025;41.996;23.098;2023-02-22T08:37:56;4.57;;;4.25;;
37115;SDS011;23025;41.996;23.098;2023-02-22T08:40:24;6.13;;;4.65;;
37115;SDS011;23025;41.996;23.098;2023-02-22T08:42:51;5.32;;;4.93;;
37115;SDS011;23025;41.996;23.098;2023-02-22T08:45:18;4.80;;;4.40;;
37115;SDS011;23025;41.996;23.098;2023-02-22T08:47:45;5.18;;;4.88;;
37115;SDS011;23025;41.996;23.098;2023-02-22T08:50:16;3.58;;;3.28;;
37115;SDS011;23025;41.996;23.098;2023-02-22T08:52:43;5.38;;;4.97;;
37115;SDS011;23025;41.996;23.098;2023-02-22T08:55:09;6.57;;;6.18;;
37115;SDS011;23025;41.996;23.098;2023-02-22T08:57:36;4.57;;;4.22;;
37115;SDS011;23025;41.996;23.098;2023-02-22T09:00:03;5.43;;;5.00;;
37115;SDS011;23025;41.996;23.098;2023-02-22T09:02:29;5.43;;;5.05;;
37115;SDS011;23025;41.996;23.098;2023-02-22T09:04:56;4.50;;;4.15;;
37115;SDS011;23025;41.996;23.098;2023-02-22T09:07:23;5.80;;;5.40;;
37115;SDS011;23025;41.996;23.098;2023-02-22T09:09:50;7.78;;;5.07;;
37115;SDS011;23025;41.996;23.098;2023-02-22T09:12:16;6.00;;;4.80;;
37115;SDS011;23025;41.996;23.098;2023-02-22T09:14:43;5.82;;;5.53;;
37115;SDS011;23025;41.996;23.098;2023-02-22T09:17:10;4.60;;;3.95;;
37115;SDS011;23025;41.996;23.098;2023-02-22T09:19:36;4.10;;;3.80;;
37115;SDS011;23025;41.996;23.098;2023-02-22T09:22:03;6.85;;;6.22;;
37115;SDS011;23025;41.996;23.098;2023-02-22T09:24:30;5.75;;;5.40;;
37115;SDS011;23025;41.996;23.098;2023-02-22T09:26:57;5.10;;;4.88;;
37115;SDS011;23025;41.996;23.098;2023-02-22T09:29:24;6.22;;;5.72;;
37115;SDS011;23025;41.996;23.098;2023-02-22T09:31:52;5.93;;;5.63;;
37115;SDS011;23025;41.996;23.098;2023-02-22T09:34:19;4.88;;;4.45;;
37115;SDS011;23025;41.996;23.098;2023-02-22T09:36:47;9.60;;;6.53;;
37115;SDS011;23025;41.996;23.098;2023-02-22T09:39:14;5.90;;;5.32;;
37115;SDS011;23025;41.996;23.098;2023-02-22T09:41:44;5.00;;;4.68;;
37115;SDS011;23025;41.996;23.098;2023-02-22T09:44:15;4.78;;;4.35;;
37115;SDS011;23025;41.996;23.098;2023-02-22T09:46:45;6.22;;;5.57;;
37115;SDS011;23025;41.996;23.098;2023-02-22T09:49:17;5.30;;;4.85;;
37115;SDS011;23025;41.996;23.098;2023-02-22T09:51:46;6.30;;;5.80;;
37115;SDS011;23025;41.996;23.098;2023-02-22T09:54:16;4.53;;;4.25;;
37115;SDS011;23025;41.996;23.098;2023-02-22T09:56:46;5.85;;;5.53;;
37115;SDS011;23025;41.996;23.098;2023-02-22T09:59:14;5.50;;;5.10;;
37115;SDS011;23025;41.996;23.098;2023-02-22T10:01:44;7.18;;;5.50;;
37115;SDS011;23025;41.996;23.098;2023-02-22T10:04:14;5.65;;;5.32;;
37115;SDS011;23025;41.996;23.098;2023-02-22T10:06:48;5.20;;;4.82;;
37115;SDS011;23025;41.996;23.098;2023-02-22T10:09:17;7.50;;;7.13;;
37115;SDS011;23025;41.996;23.098;2023-02-22T10:11:49;7.38;;;6.93;;
37115;SDS011;23025;41.996;23.098;2023-02-22T10:14:28;5.38;;;4.88;;
37115;SDS011;23025;41.996;23.098;2023-02-22T10:16:59;7.18;;;6.40;;
37115;SDS011;23025;41.996;23.098;2023-02-22T10:19:31;6.57;;;6.13;;
37115;SDS011;23025;41.996;23.098;2023-02-22T10:22:09;6.18;;;5.85;;
37115;SDS011;23025;41.996;23.098;2023-02-22T10:24:43;5.10;;;4.88;;
37115;SDS011;23025;41.996;23.098;2023-02-22T10:27:14;5.20;;;4.93;;
37115;SDS011;23025;41.996;23.098;2023-02-22T10:29:42;7.45;;;7.05;;
37115;SDS011;23025;41.996;23.098;2023-02-22T10:32:13;8.07;;;7.65;;
37115;SDS011;23025;41.996;23.098;2023-02-22T10:34:42;6.40;;;5.90;;
37115;SDS011;23025;41.996;23.098;2023-02-22T10:37:16;11.07;;;10.15;;
37115;SDS011;23025;41.996;23.098;2023-02-22T10:39:44;8.20;;;7.07;;
37115;SDS011;23025;41.996;23.098;2023-02-22T10:42:11;8.70;;;8.20;;
37115;SDS011;23025;41.996;23.098;2023-02-22T10:44:39;8.98;;;8.50;;
37115;SDS011;23025;41.996;23.098;2023-02-22T10:47:07;9.63;;;8.82;;
37115;SDS011;23025;41.996;23.098;2023-02-22T10:49:36;8.88;;;8.18;;
37115;SDS011;23025;41.996;23.098;2023-02-22T10:52:10;7.35;;;6.80;;
37115;SDS011;23025;41.996;23.098;2023-02-22T10:54:38;6.80;;;6.25;;
37115;SDS011;23025;41.996;23.098;2023-02-22T10:57:06;9.77;;;9.20;;
37115;SDS011;23025;41.996;23.098;2023-02-22T10:59:33;9.70;;;9.00;;
37115;SDS011;23025;41.996;23.098;2023-02-22T11:02:07;11.65;;;10.82;;
37115;SDS011;23025;41.996;23.098;2023-02-22T11:04:43;11.43;;;10.73;;
37115;SDS011;23025;41.996;23.098;2023-02-22T11:07:16;9.73;;;9.10;;
37115;SDS011;23025;41.996;23.098;2023-02-22T11:09:48;10.27;;;9.80;;
37115;SDS011;23025;41.996;23.098;2023-02-22T11:12:16;8.15;;;7.55;;
37115;SDS011;23025;41.996;23.098;2023-02-22T11:14:43;10.38;;;9.73;;
37115;SDS011;23025;41.996;23.098;2023-02-22T11:17:14;7.60;;;7.07;;
37115;SDS011;23025;41.996;23.098;2023-02-22T11:19:44;8.93;;;8.40;;
37115;SDS011;23025;41.996;23.098;2023-02-22T11:22:12;9.20;;;8.43;;
37115;SDS011;23025;41.996;23.098;2023-02-22T11:24:43;8.18;;;6.72;;
37115;SDS011;23025;41.996;23.098;2023-02-22T11:27:19;8.45;;;7.68;;
37115;SDS011;23025;41.996;23.098;2023-02-22T11:29:47;9.70;;;8.93;;
37115;SDS011;23025;41.996;23.098;2023-02-22T11:32:17;9.57;;;9.07;;
37115;SDS011;23025;41.996;23.098;2023-02-22T11:34:46;7.72;;;7.10;;
37115;SDS011;23025;41.996;23.098;2023-02-22T11:37:14;7.55;;;7.03;;
37115;SDS011;23025;41.996;23.098;2023-02-22T11:39:42;8.93;;;8.43;;
37115;SDS011;23025;41.996;23.098;2023-02-22T11:42:13;6.75;;;6.35;;
37115;SDS011;23025;41.996;23.098;2023-02-22T11:44:44;8.63;;;6.05;;
37115;SDS011;23025;41.996;23.098;2023-02-22T11:47:11;10.13;;;9.32;;
37115;SDS011;23025;41.996;23.098;2023-02-22T11:49:40;10.60;;;9.70;;
37115;SDS011;23025;41.996;23.098;2023-02-22T11:52:11;14.15;;;13.40;;
37115;SDS011;23025;41.996;23.098;2023-02-22T12:00:18;9.10;;;8.50;;
37115;SDS011;23025;41.996;23.098;2023-02-22T12:02:55;8.48;;;8.05;;
37115;SDS011;23025;41.996;23.098;2023-02-22T12:05:31;9.43;;;8.70;;
37115;SDS011;23025;41.996;23.098;2023-02-22T12:08:11;13.15;;;12.02;;
37115;SDS011;23025;41.996;23.098;2023-02-22T12:10:45;10.65;;;9.38;;
37115;SDS011;23025;41.996;23.098;2023-02-22T12:13:19;8.88;;;8.15;;
37115;SDS011;23025;41.996;23.098;2023-02-22T12:15:52;10.82;;;10.02;;
37115;SDS011;23025;41.996;23.098;2023-02-22T12:18:23;10.00;;;9.45;;
37115;SDS011;23025;41.996;23.098;2023-02-22T12:20:54;8.60;;;6.55;;
37115;SDS011;23025;41.996;23.098;2023-02-22T12:23:22;6.07;;;5.65;;
37115;SDS011;23025;41.996;23.098;2023-02-22T12:25:55;8.43;;;7.72;;
37115;SDS011;23025;41.996;23.098;2023-02-22T12:28:24;8.80;;;8.27;;
37115;SDS011;23025;41.996;23.098;2023-02-22T12:30:55;8.57;;;7.88;;
37115;SDS011;23025;41.996;23.098;2023-02-22T12:33:26;11.35;;;10.73;;
37115;SDS011;23025;41.996;23.098;2023-02-22T12:35:57;10.60;;;9.90;;
37115;SDS011;23025;41.996;23.098;2023-02-22T12:38:26;9.85;;;9.25;;
37115;SDS011;23025;41.996;23.098;2023-02-22T12:40:57;10.68;;;10.05;;
37115;SDS011;23025;41.996;23.098;2023-02-22T12:43:26;9.45;;;8.95;;
37115;SDS011;23025;41.996;23.098;2023-02-22T12:45:56;8.98;;;8.40;;
37115;SDS011;23025;41.996;23.098;2023-02-22T12:48:28;14.13;;;13.35;;
37115;SDS011;23025;41.996;23.098;2023-02-22T12:51:00;8.10;;;7.72;;
37115;SDS011;23025;41.996;23.098;2023-02-22T12:53:30;9.30;;;8.68;;
37115;SDS011;23025;41.996;23.098;2023-02-22T12:55:57;11.98;;;11.23;;
37115;SDS011;23025;41.996;23.098;2023-02-22T12:58:26;8.68;;;8.07;;
37115;SDS011;23025;41.996;23.098;2023-02-22T13:00:57;10.07;;;9.32;;
37115;SDS011;23025;41.996;23.098;2023-02-22T13:03:26;6.90;;;6.50;;
37115;SDS011;23025;41.996;23.098;2023-02-22T13:05:57;8.13;;;7.80;;
37115;SDS011;23025;41.996;23.098;2023-02-22T13:08:31;7.78;;;7.35;;
37115;SDS011;23025;41.996;23.098;2023-02-22T13:11:05;8.88;;;6.88;;
37115;SDS011;23025;41.996;23.098;2023-02-22T13:13:35;9.88;;;9.27;;
37115;SDS011;23025;41.996;23.098;2023-02-22T13:16:05;10.88;;;9.85;;
37115;SDS011;23025;41.996;23.098;2023-02-22T13:18:34;8.40;;;7.78;;
37115;SDS011;23025;41.996;23.098;2023-02-22T13:21:03;9.50;;;8.77;;
37115;SDS011;23025;41.996;23.098;2023-02-22T13:23:38;11.65;;;10.88;;
37115;SDS011;23025;41.996;23.098;2023-02-22T13:26:10;8.90;;;8.30;;
37115;SDS011;23025;41.996;23.098;2023-02-22T13:28:40;7.05;;;6.72;;
37115;SDS011;23025;41.996;23.098;2023-02-22T13:31:22;8.23;;;7.80;;
37115;SDS011;23025;41.996;23.098;2023-02-22T13:33:56;7.45;;;7.03;;
37115;SDS011;23025;41.996;23.098;2023-02-22T13:36:31;6.75;;;6.38;;
37115;SDS011;23025;41.996;23.098;2023-02-22T13:39:12;4.45;;;4.22;;
37115;SDS011;23025;41.996;23.098;2023-02-22T13:41:42;8.27;;;7.47;;
37115;SDS011;23025;41.996;23.098;2023-02-22T13:44:21;6.93;;;6.63;;
37115;SDS011;23025;41.996;23.098;2023-02-22T13:49:58;6.50;;;5.90;;
37115;SDS011;23025;41.996;23.098;2023-02-22T13:52:30;6.85;;;6.47;;
37115;SDS011;23025;41.996;23.098;2023-02-22T13:55:00;9.95;;;9.00;;
37115;SDS011;23025;41.996;23.098;2023-02-22T13:57:28;6.22;;;5.82;;
37115;SDS011;23025;41.996;23.098;2023-02-22T14:02:56;5.38;;;5.15;;
37115;SDS011;23025;41.996;23.098;2023-02-22T14:08:05;7.50;;;7.13;;
37115;SDS011;23025;41.996;23.098;2023-02-22T14:10:38;4.65;;;4.35;;
37115;SDS011;23025;41.996;23.098;2023-02-22T14:13:05;4.95;;;4.72;;
37115;SDS011;23025;41.996;23.098;2023-02-22T14:15:32;7.38;;;6.97;;
37115;SDS011;23025;41.996;23.098;2023-02-22T14:17:59;5.75;;;5.38;;
37115;SDS011;23025;41.996;23.098;2023-02-22T14:20:28;5.97;;;5.53;;
37115;SDS011;23025;41.996;23.098;2023-02-22T14:25:45;8.27;;;7.72;;
37115;SDS011;23025;41.996;23.098;2023-02-22T14:31:02;6.93;;;6.55;;
37115;SDS011;23025;41.996;23.098;2023-02-22T14:36:14;6.07;;;5.80;;
37115;SDS011;23025;41.996;23.098;2023-02-22T14:38:42;7.68;;;7.35;;
37115;SDS011;23025;41.996;23.098;2023-02-22T14:41:11;7.38;;;6.97;;
37115;SDS011;23025;41.996;23.098;2023-02-22T14:43:39;7.40;;;6.90;;
37115;SDS011;23025;41.996;23.098;2023-02-22T14:46:05;5.88;;;5.57;;
37115;SDS011;23025;41.996;23.098;2023-02-22T14:48:33;5.03;;;4.72;;
37115;SDS011;23025;41.996;23.098;2023-02-22T14:51:04;4.28;;;3.97;;
37115;SDS011;23025;41.996;23.098;2023-02-22T14:53:33;5.50;;;4.38;;
37115;SDS011;23025;41.996;23.098;2023-02-22T14:56:04;8.05;;;7.38;;
37115;SDS011;23025;41.996;23.098;2023-02-22T14:58:35;4.78;;;4.47;;
37115;SDS011;23025;41.996;23.098;2023-02-22T15:01:14;8.23;;;7.72;;
37115;SDS011;23025;41.996;23.098;2023-02-22T15:03:44;7.90;;;7.50;;
37115;SDS011;23025;41.996;23.098;2023-02-22T15:06:13;5.50;;;5.00;;
37115;SDS011;23025;41.996;23.098;2023-02-22T15:08:41;6.05;;;5.63;;
37115;SDS011;23025;41.996;23.098;2023-02-22T15:11:18;5.30;;;5.07;;